sensor_id;sensor_type;location;lat;lon;timestamp;P1;durP1;ratioP1;P2;durP2;ratioP2
8568;SDS011;4322;51.104;-4.162;2023-04-06T00:01:48;25.93;;;24.53;;
8568;SDS011;4322;51.104;-4.162;2023-04-06T00:04:16;26.20;;;24.80;;
8568;SDS011;4322;51.104;-4.162;2023-04-06T00:06:44;25.67;;;24.27;;
8568;SDS011;4322;51.104;-4.162;2023-04-06T00:09:13;24.70;;;23.40;;
8568;SDS011;4322;51.104;-4.162;2023-04-06T00:11:41;25.17;;;23.87;;
8568;SDS011;4322;51.104;-4.162;2023-04-06T00:14:09;24.93;;;23.63;;
8568;SDS011;4322;51.104;-4.162;2023-04-06T00:16:36;25.43;;;24.13;;
8568;SDS011;4322;51.104;-4.162;2023-04-06T00:19:04;22.93;;;21.73;;
8568;SDS011;4322;51.104;-4.162;2023-04-06T00:21:33;24.13;;;22.83;;
8568;SDS011;4322;51.104;-4.162;2023-04-06T00:24:01;25.17;;;23.83;;
8568;SDS011;4322;51.104;-4.162;2023-04-06T00:26:31;23.70;;;22.47;;
8568;SDS011;4322;51.104;-4.162;2023-04-06T00:28:59;23.57;;;22.37;;
8568;SDS011;4322;51.104;-4.162;2023-04-06T00:31:27;24.70;;;23.40;;
8568;SDS011;4322;51.104;-4.162;2023-04-06T00:33:55;24.67;;;23.37;;
8568;SDS011;4322;51.104;-4.162;2023-04-06T00:36:23;23.23;;;22.03;;
8568;SDS011;4322;51.104;-4.162;2023-04-06T00:38:51;21.07;;;19.97;;
8568;SDS011;4322;51.104;-4.162;2023-04-06T00:41:19;20.73;;;19.63;;
8568;SDS011;4322;51.104;-4.162;2023-04-06T00:43:49;20.67;;;19.57;;
8568;SDS011;4322;51.104;-4.162;2023-04-06T00:46:17;20.83;;;19.73;;
8568;SDS011;4322;51.104;-4.162;2023-04-06T00:48:44;20.27;;;19.23;;
8568;SDS011;4322;51.104;-4.162;2023-04-06T00:51:12;20.00;;;19.00;;
8568;SDS011;4322;51.104;-4.162;2023-04-06T00:53:41;21.47;;;20.37;;
8568;SDS011;4322;51.104;-4.162;2023-04-06T00:56:09;19.53;;;18.53;;
8568;SDS011;4322;51.104;-4.162;2023-04-06T00:58:37;19.60;;;18.60;;
8568;SDS011;4322;51.104;-4.162;2023-04-06T01:01:06;21.57;;;20.47;;
8568;SDS011;4322;51.104;-4.162;2023-04-06T01:03:34;17.57;;;16.67;;
8568;SDS011;4322;51.104;-4.162;2023-04-06T01:06:02;19.53;;;18.53;;
8568;SDS011;4322;51.104;-4.162;2023-04-06T01:08:33;20.00;;;19.00;;
8568;SDS011;4322;51.104;-4.162;2023-04-06T01:11:01;19.97;;;18.97;;
8568;SDS011;4322;51.104;-4.162;2023-04-06T01:13:29;20.93;;;19.83;;
8568;SDS011;4322;51.104;-4.162;2023-04-06T01:15:57;20.60;;;19.50;;
8568;SDS011;4322;51.104;-4.162;2023-04-06T01:18:26;19.33;;;18.33;;
8568;SDS011;4322;51.104;-4.162;2023-04-06T01:20:54;19.63;;;18.63;;
8568;SDS011;4322;51.104;-4.162;2023-04-06T01:23:24;19.07;;;18.07;;
8568;SDS011;4322;51.104;-4.162;2023-04-06T01:25:51;19.20;;;18.20;;
8568;SDS011;4322;51.104;-4.162;2023-04-06T01:28:19;20.23;;;19.20;;
8568;SDS011;4322;51.104;-4.162;2023-04-06T01:30:47;19.53;;;18.53;;
8568;SDS011;4322;51.104;-4.162;2023-04-06T01:33:15;20.03;;;19.03;;
8568;SDS011;4322;51.104;-4.162;2023-04-06T01:35:43;20.63;;;19.53;;
8568;SDS011;4322;51.104;-4.162;2023-04-06T01:38:11;20.00;;;19.00;;
8568;SDS011;4322;51.104;-4.162;2023-04-06T01:40:41;20.43;;;19.33;;
8568;SDS011;4322;51.104;-4.162;2023-04-06T01:43:09;21.47;;;20.37;;
8568;SDS011;4322;51.104;-4.162;2023-04-06T01:45:37;20.33;;;19.23;;
8568;SDS011;4322;51.104;-4.162;2023-04-06T01:48:05;19.50;;;18.50;;
8568;SDS011;4322;51.104;-4.162;2023-04-06T01:50:33;20.07;;;19.07;;
8568;SDS011;4322;51.104;-4.162;2023-04-06T01:53:00;20.13;;;19.10;;
8568;SDS011;4322;51.104;-4.162;2023-04-06T01:55:28;19.57;;;18.57;;
8568;SDS011;4322;51.104;-4.162;2023-04-06T01:57:58;19.50;;;18.50;;
8568;SDS011;4322;51.104;-4.162;2023-04-06T02:00:26;20.40;;;19.30;;
8568;SDS011;4322;51.104;-4.162;2023-04-06T02:02:54;20.63;;;19.53;;
8568;SDS011;4322;51.104;-4.162;2023-04-06T02:05:21;20.50;;;19.40;;
8568;SDS011;4322;51.104;-4.162;2023-04-06T02:07:49;20.10;;;19.10;;
8568;SDS011;4322;51.104;-4.162;2023-04-06T02:10:18;20.73;;;19.63;;
8568;SDS011;4322;51.104;-4.162;2023-04-06T02:12:45;18.67;;;17.67;;
8568;SDS011;4322;51.104;-4.162;2023-04-06T02:15:15;19.73;;;18.73;;
8568;SDS011;4322;51.104;-4.162;2023-04-06T02:17:42;20.63;;;19.53;;
8568;SDS011;4322;51.104;-4.162;2023-04-06T02:20:11;20.73;;;19.63;;
8568;SDS011;4322;51.104;-4.162;2023-04-06T02:22:39;16.97;;;16.07;;
8568;SDS011;4322;51.104;-4.162;2023-04-06T02:25:07;19.17;;;18.17;;
8568;SDS011;4322;51.104;-4.162;2023-04-06T02:27:35;18.60;;;17.60;;
8568;SDS011;4322;51.104;-4.162;2023-04-06T02:30:03;18.53;;;17.57;;
8568;SDS011;4322;51.104;-4.162;2023-04-06T02:32:32;17.53;;;16.63;;
8568;SDS011;4322;51.104;-4.162;2023-04-06T02:35:01;17.40;;;16.50;;
8568;SDS011;4322;51.104;-4.162;2023-04-06T02:37:29;18.27;;;17.37;;
8568;SDS011;4322;51.104;-4.162;2023-04-06T02:39:56;17.93;;;17.03;;
8568;SDS011;4322;51.104;-4.162;2023-04-06T02:42:24;16.97;;;16.07;;
8568;SDS011;4322;51.104;-4.162;2023-04-06T02:44:52;20.10;;;19.00;;
8568;SDS011;4322;51.104;-4.162;2023-04-06T02:47:20;18.93;;;17.93;;
8568;SDS011;4322;51.104;-4.162;2023-04-06T02:49:49;16.47;;;15.67;;
8568;SDS011;4322;51.104;-4.162;2023-04-06T02:52:17;18.77;;;17.77;;
8568;SDS011;4322;51.104;-4.162;2023-04-06T02:54:45;15.73;;;14.93;;
8568;SDS011;4322;51.104;-4.162;2023-04-06T02:57:13;16.10;;;15.30;;
8568;SDS011;4322;51.104;-4.162;2023-04-06T02:59:40;19.37;;;18.37;;
8568;SDS011;4322;51.104;-4.162;2023-04-06T03:02:08;19.43;;;18.43;;
8568;SDS011;4322;51.104;-4.162;2023-04-06T03:04:36;16.33;;;15.53;;
8568;SDS011;4322;51.104;-4.162;2023-04-06T03:07:05;16.10;;;15.30;;
8568;SDS011;4322;51.104;-4.162;2023-04-06T03:09:33;17.93;;;17.03;;
8568;SDS011;4322;51.104;-4.162;2023-04-06T03:12:01;17.27;;;16.37;;
8568;SDS011;4322;51.104;-4.162;2023-04-06T03:14:29;17.53;;;16.63;;
8568;SDS011;4322;51.104;-4.162;2023-04-06T03:16:57;17.83;;;16.93;;
8568;SDS011;4322;51.104;-4.162;2023-04-06T03:19:25;17.57;;;16.67;;
8568;SDS011;4322;51.104;-4.162;2023-04-06T03:21:53;17.13;;;16.23;;
8568;SDS011;4322;51.104;-4.162;2023-04-06T03:24:22;17.27;;;16.37;;
8568;SDS011;4322;51.104;-4.162;2023-04-06T03:26:50;16.90;;;16.07;;
8568;SDS011;4322;51.104;-4.162;2023-04-06T03:29:18;16.23;;;15.43;;
8568;SDS011;4322;51.104;-4.162;2023-04-06T03:31:46;17.17;;;16.27;;
8568;SDS011;4322;51.104;-4.162;2023-04-06T03:34:14;16.60;;;15.80;;
8568;SDS011;4322;51.104;-4.162;2023-04-06T03:36:41;16.73;;;15.93;;
8568;SDS011;4322;51.104;-4.162;2023-04-06T03:39:09;16.70;;;15.90;;
8568;SDS011;4322;51.104;-4.162;2023-04-06T03:41:38;16.60;;;15.80;;
8568;SDS011;4322;51.104;-4.162;2023-04-06T03:44:06;16.83;;;15.97;;
8568;SDS011;4322;51.104;-4.162;2023-04-06T03:46:34;17.50;;;16.60;;
8568;SDS011;4322;51.104;-4.162;2023-04-06T03:49:02;17.33;;;16.43;;
8568;SDS011;4322;51.104;-4.162;2023-04-06T03:51:30;15.13;;;14.33;;
8568;SDS011;4322;51.104;-4.162;2023-04-06T03:53:58;15.50;;;14.70;;
8568;SDS011;4322;51.104;-4.162;2023-04-06T03:56:26;15.33;;;14.53;;
8568;SDS011;4322;51.104;-4.162;2023-04-06T03:58:55;15.23;;;14.43;;
8568;SDS011;4322;51.104;-4.162;2023-04-06T04:01:23;13.67;;;12.97;;
8568;SDS011;4322;51.104;-4.162;2023-04-06T04:03:51;15.70;;;14.90;;
8568;SDS011;4322;51.104;-4.162;2023-04-06T04:06:19;13.37;;;12.70;;
8568;SDS011;4322;51.104;-4.162;2023-04-06T04:08:47;14.17;;;13.47;;
8568;SDS011;4322;51.104;-4.162;2023-04-06T04:11:14;14.80;;;14.10;;
8568;SDS011;4322;51.104;-4.162;2023-04-06T04:13:43;13.53;;;12.83;;
8568;SDS011;4322;51.104;-4.162;2023-04-06T04:16:12;12.43;;;11.83;;
8568;SDS011;4322;51.104;-4.162;2023-04-06T04:18:40;13.47;;;12.77;;
8568;SDS011;4322;51.104;-4.162;2023-04-06T04:21:10;10.33;;;9.83;;
8568;SDS011;4322;51.104;-4.162;2023-04-06T04:23:38;10.63;;;10.13;;
8568;SDS011;4322;51.104;-4.162;2023-04-06T04:26:05;11.27;;;10.77;;
8568;SDS011;4322;51.104;-4.162;2023-04-06T04:28:33;11.30;;;10.80;;
8568;SDS011;4322;51.104;-4.162;2023-04-06T04:31:01;9.23;;;8.83;;
8568;SDS011;4322;51.104;-4.162;2023-04-06T04:33:30;8.90;;;8.50;;
8568;SDS011;4322;51.104;-4.162;2023-04-06T04:35:58;7.77;;;7.37;;
8568;SDS011;4322;51.104;-4.162;2023-04-06T04:38:26;7.90;;;7.50;;
8568;SDS011;4322;51.104;-4.162;2023-04-06T04:40:54;7.43;;;7.13;;
8568;SDS011;4322;51.104;-4.162;2023-04-06T04:43:22;8.10;;;7.70;;
8568;SDS011;4322;51.104;-4.162;2023-04-06T04:45:49;8.03;;;7.63;;
8568;SDS011;4322;51.104;-4.162;2023-04-06T04:48:19;8.90;;;8.50;;
8568;SDS011;4322;51.104;-4.162;2023-04-06T04:50:48;9.13;;;8.73;;
8568;SDS011;4322;51.104;-4.162;2023-04-06T04:53:16;9.73;;;9.23;;
8568;SDS011;4322;51.104;-4.162;2023-04-06T04:55:43;9.13;;;8.73;;
8568;SDS011;4322;51.104;-4.162;2023-04-06T04:58:11;10.30;;;9.80;;
8568;SDS011;4322;51.104;-4.162;2023-04-06T05:00:42;9.97;;;9.47;;
8568;SDS011;4322;51.104;-4.162;2023-04-06T05:03:11;10.13;;;9.63;;
8568;SDS011;4322;51.104;-4.162;2023-04-06T05:05:41;10.90;;;10.40;;
8568;SDS011;4322;51.104;-4.162;2023-04-06T05:08:11;12.20;;;11.60;;
8568;SDS011;4322;51.104;-4.162;2023-04-06T05:10:39;12.57;;;11.97;;
8568;SDS011;4322;51.104;-4.162;2023-04-06T05:13:07;13.50;;;12.80;;
8568;SDS011;4322;51.104;-4.162;2023-04-06T05:15:35;11.80;;;11.20;;
8568;SDS011;4322;51.104;-4.162;2023-04-06T05:18:04;12.43;;;11.83;;
8568;SDS011;4322;51.104;-4.162;2023-04-06T05:20:32;11.87;;;11.27;;
8568;SDS011;4322;51.104;-4.162;2023-04-06T05:23:00;11.57;;;10.97;;
8568;SDS011;4322;51.104;-4.162;2023-04-06T05:25:30;10.50;;;10.00;;
8568;SDS011;4322;51.104;-4.162;2023-04-06T05:27:57;10.03;;;9.53;;
8568;SDS011;4322;51.104;-4.162;2023-04-06T05:30:26;10.17;;;9.67;;
8568;SDS011;4322;51.104;-4.162;2023-04-06T05:32:53;8.87;;;8.47;;
8568;SDS011;4322;51.104;-4.162;2023-04-06T05:35:21;9.10;;;8.70;;
8568;SDS011;4322;51.104;-4.162;2023-04-06T05:37:49;9.13;;;8.73;;
8568;SDS011;4322;51.104;-4.162;2023-04-06T05:40:17;8.93;;;8.53;;
8568;SDS011;4322;51.104;-4.162;2023-04-06T05:42:46;9.10;;;8.70;;
8568;SDS011;4322;51.104;-4.162;2023-04-06T05:45:15;9.90;;;9.40;;
8568;SDS011;4322;51.104;-4.162;2023-04-06T05:47:44;9.17;;;8.77;;
8568;SDS011;4322;51.104;-4.162;2023-04-06T05:50:13;8.30;;;7.90;;
8568;SDS011;4322;51.104;-4.162;2023-04-06T05:52:41;6.60;;;6.30;;
8568;SDS011;4322;51.104;-4.162;2023-04-06T05:55:11;7.17;;;6.87;;
8568;SDS011;4322;51.104;-4.162;2023-04-06T05:57:39;6.50;;;6.20;;
8568;SDS011;4322;51.104;-4.162;2023-04-06T06:00:09;7.40;;;7.10;;
8568;SDS011;4322;51.104;-4.162;2023-04-06T06:02:37;8.20;;;7.80;;
8568;SDS011;4322;51.104;-4.162;2023-04-06T06:05:06;9.50;;;9.10;;
8568;SDS011;4322;51.104;-4.162;2023-04-06T06:07:34;9.97;;;9.47;;
8568;SDS011;4322;51.104;-4.162;2023-04-06T06:10:02;7.00;;;6.70;;
8568;SDS011;4322;51.104;-4.162;2023-04-06T06:12:30;7.33;;;7.03;;
8568;SDS011;4322;51.104;-4.162;2023-04-06T06:14:58;5.50;;;5.30;;
8568;SDS011;4322;51.104;-4.162;2023-04-06T06:17:28;5.97;;;5.67;;
8568;SDS011;4322;51.104;-4.162;2023-04-06T06:19:56;4.67;;;4.47;;
8568;SDS011;4322;51.104;-4.162;2023-04-06T06:22:23;5.57;;;5.37;;
8568;SDS011;4322;51.104;-4.162;2023-04-06T06:24:51;4.20;;;4.00;;
8568;SDS011;4322;51.104;-4.162;2023-04-06T06:27:19;4.53;;;4.33;;
8568;SDS011;4322;51.104;-4.162;2023-04-06T06:29:47;4.10;;;3.90;;
8568;SDS011;4322;51.104;-4.162;2023-04-06T06:32:15;4.10;;;3.90;;
8568;SDS011;4322;51.104;-4.162;2023-04-06T06:34:44;3.80;;;3.70;;
8568;SDS011;4322;51.104;-4.162;2023-04-06T06:37:12;2.90;;;2.80;;
8568;SDS011;4322;51.104;-4.162;2023-04-06T06:39:40;3.60;;;3.50;;
8568;SDS011;4322;51.104;-4.162;2023-04-06T06:42:07;4.40;;;4.20;;
8568;SDS011;4322;51.104;-4.162;2023-04-06T06:44:37;4.10;;;3.90;;
8568;SDS011;4322;51.104;-4.162;2023-04-06T06:47:05;4.33;;;4.13;;
8568;SDS011;4322;51.104;-4.162;2023-04-06T06:49:32;3.10;;;3.00;;
8568;SDS011;4322;51.104;-4.162;2023-04-06T06:52:02;4.27;;;4.07;;
8568;SDS011;4322;51.104;-4.162;2023-04-06T06:54:30;3.80;;;3.70;;
8568;SDS011;4322;51.104;-4.162;2023-04-06T06:56:57;4.10;;;3.90;;
8568;SDS011;4322;51.104;-4.162;2023-04-06T06:59:26;4.10;;;3.90;;
8568;SDS011;4322;51.104;-4.162;2023-04-06T07:01:54;4.17;;;3.97;;
8568;SDS011;4322;51.104;-4.162;2023-04-06T07:04:22;4.10;;;3.90;;
8568;SDS011;4322;51.104;-4.162;2023-04-06T07:06:50;3.60;;;3.50;;
8568;SDS011;4322;51.104;-4.162;2023-04-06T07:09:20;4.10;;;3.90;;
8568;SDS011;4322;51.104;-4.162;2023-04-06T07:11:48;3.53;;;3.43;;
8568;SDS011;4322;51.104;-4.162;2023-04-06T07:14:16;3.80;;;3.70;;
8568;SDS011;4322;51.104;-4.162;2023-04-06T07:16:44;4.20;;;4.00;;
8568;SDS011;4322;51.104;-4.162;2023-04-06T07:19:13;4.13;;;3.93;;
8568;SDS011;4322;51.104;-4.162;2023-04-06T07:21:41;4.53;;;4.33;;
8568;SDS011;4322;51.104;-4.162;2023-04-06T07:24:09;4.63;;;4.43;;
8568;SDS011;4322;51.104;-4.162;2023-04-06T07:26:38;4.30;;;4.10;;
8568;SDS011;4322;51.104;-4.162;2023-04-06T07:29:06;4.60;;;4.40;;
8568;SDS011;4322;51.104;-4.162;2023-04-06T07:31:34;4.63;;;4.43;;
8568;SDS011;4322;51.104;-4.162;2023-04-06T07:34:02;4.80;;;4.60;;
8568;SDS011;4322;51.104;-4.162;2023-04-06T07:36:30;4.50;;;4.30;;
8568;SDS011;4322;51.104;-4.162;2023-04-06T07:38:58;4.50;;;4.30;;
8568;SDS011;4322;51.104;-4.162;2023-04-06T07:41:25;4.70;;;4.50;;
8568;SDS011;4322;51.104;-4.162;2023-04-06T07:43:55;5.23;;;5.03;;
8568;SDS011;4322;51.104;-4.162;2023-04-06T07:46:23;4.83;;;4.63;;
8568;SDS011;4322;51.104;-4.162;2023-04-06T07:48:50;4.50;;;4.30;;
8568;SDS011;4322;51.104;-4.162;2023-04-06T07:51:18;4.83;;;4.63;;
8568;SDS011;4322;51.104;-4.162;2023-04-06T07:53:46;4.80;;;4.60;;
8568;SDS011;4322;51.104;-4.162;2023-04-06T07:56:14;4.77;;;4.57;;
8568;SDS011;4322;51.104;-4.162;2023-04-06T07:58:42;5.13;;;4.93;;
8568;SDS011;4322;51.104;-4.162;2023-04-06T08:01:12;4.97;;;4.77;;
8568;SDS011;4322;51.104;-4.162;2023-04-06T08:03:40;4.80;;;4.60;;
8568;SDS011;4322;51.104;-4.162;2023-04-06T08:06:08;5.10;;;4.90;;
8568;SDS011;4322;51.104;-4.162;2023-04-06T08:08:36;4.63;;;4.43;;
8568;SDS011;4322;51.104;-4.162;2023-04-06T08:11:04;5.20;;;5.00;;
8568;SDS011;4322;51.104;-4.162;2023-04-06T08:13:31;5.90;;;5.60;;
8568;SDS011;4322;51.104;-4.162;2023-04-06T08:15:59;5.40;;;5.20;;
8568;SDS011;4322;51.104;-4.162;2023-04-06T08:18:29;5.20;;;5.00;;
8568;SDS011;4322;51.104;-4.162;2023-04-06T08:20:57;5.77;;;5.57;;
8568;SDS011;4322;51.104;-4.162;2023-04-06T08:23:25;5.70;;;5.50;;
8568;SDS011;4322;51.104;-4.162;2023-04-06T08:25:53;5.53;;;5.33;;
8568;SDS011;4322;51.104;-4.162;2023-04-06T08:28:20;5.00;;;4.80;;
8568;SDS011;4322;51.104;-4.162;2023-04-06T08:30:48;5.17;;;4.97;;
8568;SDS011;4322;51.104;-4.162;2023-04-06T08:33:16;5.30;;;5.10;;
8568;SDS011;4322;51.104;-4.162;2023-04-06T08:35:46;5.77;;;5.53;;
8568;SDS011;4322;51.104;-4.162;2023-04-06T08:38:13;5.33;;;5.13;;
8568;SDS011;4322;51.104;-4.162;2023-04-06T08:40:41;5.73;;;5.53;;
8568;SDS011;4322;51.104;-4.162;2023-04-06T08:43:13;5.63;;;5.43;;
8568;SDS011;4322;51.104;-4.162;2023-04-06T08:45:41;6.00;;;5.70;;
8568;SDS011;4322;51.104;-4.162;2023-04-06T08:48:09;5.60;;;5.40;;
8568;SDS011;4322;51.104;-4.162;2023-04-06T08:50:37;5.70;;;5.50;;
8568;SDS011;4322;51.104;-4.162;2023-04-06T08:53:08;5.57;;;5.37;;
8568;SDS011;4322;51.104;-4.162;2023-04-06T08:55:36;5.10;;;4.90;;
8568;SDS011;4322;51.104;-4.162;2023-04-06T08:58:04;5.97;;;5.67;;
8568;SDS011;4322;51.104;-4.162;2023-04-06T09:00:35;5.47;;;5.27;;
8568;SDS011;4322;51.104;-4.162;2023-04-06T09:03:04;5.57;;;5.37;;
8568;SDS011;4322;51.104;-4.162;2023-04-06T09:05:33;5.50;;;5.30;;
8568;SDS011;4322;51.104;-4.162;2023-04-06T09:08:01;6.00;;;5.70;;
8568;SDS011;4322;51.104;-4.162;2023-04-06T09:10:30;5.93;;;5.63;;
8568;SDS011;4322;51.104;-4.162;2023-04-06T09:13:05;6.20;;;5.90;;
8568;SDS011;4322;51.104;-4.162;2023-04-06T09:15:33;5.50;;;5.30;;
8568;SDS011;4322;51.104;-4.162;2023-04-06T09:18:00;5.93;;;5.63;;
8568;SDS011;4322;51.104;-4.162;2023-04-06T09:20:29;5.67;;;5.47;;
8568;SDS011;4322;51.104;-4.162;2023-04-06T09:22:56;6.00;;;5.70;;
8568;SDS011;4322;51.104;-4.162;2023-04-06T09:25:24;6.30;;;6.00;;
8568;SDS011;4322;51.104;-4.162;2023-04-06T09:28:01;6.43;;;6.13;;
8568;SDS011;4322;51.104;-4.162;2023-04-06T09:30:29;5.67;;;5.47;;
8568;SDS011;4322;51.104;-4.162;2023-04-06T09:32:57;5.97;;;5.67;;
8568;SDS011;4322;51.104;-4.162;2023-04-06T09:35:26;6.10;;;5.80;;
8568;SDS011;4322;51.104;-4.162;2023-04-06T09:37:56;6.00;;;5.70;;
8568;SDS011;4322;51.104;-4.162;2023-04-06T09:40:24;6.17;;;5.87;;
8568;SDS011;4322;51.104;-4.162;2023-04-06T09:42:52;6.17;;;5.87;;
8568;SDS011;4322;51.104;-4.162;2023-04-06T09:45:25;5.97;;;5.67;;
8568;SDS011;4322;51.104;-4.162;2023-04-06T09:47:53;6.43;;;6.13;;
8568;SDS011;4322;51.104;-4.162;2023-04-06T09:50:23;6.50;;;6.20;;
8568;SDS011;4322;51.104;-4.162;2023-04-06T09:52:52;6.60;;;6.30;;
8568;SDS011;4322;51.104;-4.162;2023-04-06T09:55:23;6.27;;;5.97;;
8568;SDS011;4322;51.104;-4.162;2023-04-06T09:57:53;6.53;;;6.23;;
8568;SDS011;4322;51.104;-4.162;2023-04-06T10:00:24;6.10;;;5.80;;
8568;SDS011;4322;51.104;-4.162;2023-04-06T10:02:55;5.73;;;5.53;;
8568;SDS011;4322;51.104;-4.162;2023-04-06T10:05:26;6.20;;;5.90;;
8568;SDS011;4322;51.104;-4.162;2023-04-06T10:07:56;6.60;;;6.30;;
8568;SDS011;4322;51.104;-4.162;2023-04-06T10:10:27;6.43;;;6.13;;
8568;SDS011;4322;51.104;-4.162;2023-04-06T10:12:55;6.70;;;6.40;;
8568;SDS011;4322;51.104;-4.162;2023-04-06T10:15:24;6.47;;;6.17;;
8568;SDS011;4322;51.104;-4.162;2023-04-06T10:17:52;6.97;;;6.67;;
8568;SDS011;4322;51.104;-4.162;2023-04-06T10:20:21;7.40;;;7.10;;
8568;SDS011;4322;51.104;-4.162;2023-04-06T10:22:52;6.90;;;6.60;;
8568;SDS011;4322;51.104;-4.162;2023-04-06T10:25:26;6.47;;;6.17;;
8568;SDS011;4322;51.104;-4.162;2023-04-06T10:28:01;6.70;;;6.40;;
8568;SDS011;4322;51.104;-4.162;2023-04-06T10:30:31;6.67;;;6.37;;
8568;SDS011;4322;51.104;-4.162;2023-04-06T10:32:59;7.17;;;6.87;;
8568;SDS011;4322;51.104;-4.162;2023-04-06T10:35:36;6.50;;;6.20;;
8568;SDS011;4322;51.104;-4.162;2023-04-06T10:38:04;7.10;;;6.80;;
8568;SDS011;4322;51.104;-4.162;2023-04-06T10:40:32;6.77;;;6.47;;
8568;SDS011;4322;51.104;-4.162;2023-04-06T10:43:09;6.37;;;6.07;;
8568;SDS011;4322;51.104;-4.162;2023-04-06T10:45:39;7.90;;;7.50;;
8568;SDS011;4322;51.104;-4.162;2023-04-06T10:48:13;6.93;;;6.63;;
8568;SDS011;4322;51.104;-4.162;2023-04-06T10:50:42;7.13;;;6.83;;
8568;SDS011;4322;51.104;-4.162;2023-04-06T10:53:11;7.40;;;7.10;;
8568;SDS011;4322;51.104;-4.162;2023-04-06T10:55:39;7.20;;;6.90;;
8568;SDS011;4322;51.104;-4.162;2023-04-06T10:58:08;7.40;;;7.10;;
8568;SDS011;4322;51.104;-4.162;2023-04-06T11:00:35;6.83;;;6.53;;
8568;SDS011;4322;51.104;-4.162;2023-04-06T11:03:14;6.83;;;6.53;;
8568;SDS011;4322;51.104;-4.162;2023-04-06T11:05:43;7.60;;;7.30;;
8568;SDS011;4322;51.104;-4.162;2023-04-06T11:08:21;7.43;;;7.13;;
8568;SDS011;4322;51.104;-4.162;2023-04-06T11:10:49;7.40;;;7.10;;
8568;SDS011;4322;51.104;-4.162;2023-04-06T11:13:17;7.83;;;7.43;;
8568;SDS011;4322;51.104;-4.162;2023-04-06T11:15:45;7.70;;;7.33;;
8568;SDS011;4322;51.104;-4.162;2023-04-06T11:18:18;7.50;;;7.20;;
8568;SDS011;4322;51.104;-4.162;2023-04-06T11:20:49;8.60;;;8.20;;
8568;SDS011;4322;51.104;-4.162;2023-04-06T11:23:26;8.10;;;7.70;;
8568;SDS011;4322;51.104;-4.162;2023-04-06T11:25:54;8.93;;;8.53;;
8568;SDS011;4322;51.104;-4.162;2023-04-06T11:28:22;9.13;;;8.73;;
8568;SDS011;4322;51.104;-4.162;2023-04-06T11:30:49;9.17;;;8.77;;
8568;SDS011;4322;51.104;-4.162;2023-04-06T11:33:22;9.00;;;8.60;;
8568;SDS011;4322;51.104;-4.162;2023-04-06T11:35:50;8.80;;;8.40;;
8568;SDS011;4322;51.104;-4.162;2023-04-06T11:38:18;9.10;;;8.70;;
8568;SDS011;4322;51.104;-4.162;2023-04-06T11:40:47;8.00;;;7.60;;
8568;SDS011;4322;51.104;-4.162;2023-04-06T11:43:25;8.67;;;8.27;;
8568;SDS011;4322;51.104;-4.162;2023-04-06T11:45:58;8.63;;;8.23;;
8568;SDS011;4322;51.104;-4.162;2023-04-06T11:48:29;8.33;;;7.93;;
8568;SDS011;4322;51.104;-4.162;2023-04-06T11:50:57;8.20;;;7.80;;
8568;SDS011;4322;51.104;-4.162;2023-04-06T11:53:27;8.70;;;8.30;;
8568;SDS011;4322;51.104;-4.162;2023-04-06T11:55:56;9.00;;;8.60;;
8568;SDS011;4322;51.104;-4.162;2023-04-06T11:58:23;8.83;;;8.43;;
8568;SDS011;4322;51.104;-4.162;2023-04-06T12:00:51;7.97;;;7.57;;
8568;SDS011;4322;51.104;-4.162;2023-04-06T12:03:19;7.93;;;7.53;;
8568;SDS011;4322;51.104;-4.162;2023-04-06T12:05:49;7.53;;;7.23;;
8568;SDS011;4322;51.104;-4.162;2023-04-06T12:08:17;8.50;;;8.10;;
8568;SDS011;4322;51.104;-4.162;2023-04-06T12:10:45;8.13;;;7.73;;
8568;SDS011;4322;51.104;-4.162;2023-04-06T12:13:12;8.03;;;7.63;;
8568;SDS011;4322;51.104;-4.162;2023-04-06T12:15:40;7.30;;;7.00;;
8568;SDS011;4322;51.104;-4.162;2023-04-06T12:18:08;8.00;;;7.60;;
8568;SDS011;4322;51.104;-4.162;2023-04-06T12:20:36;7.97;;;7.57;;
8568;SDS011;4322;51.104;-4.162;2023-04-06T12:23:06;7.40;;;7.10;;
8568;SDS011;4322;51.104;-4.162;2023-04-06T12:25:33;8.23;;;7.83;;
8568;SDS011;4322;51.104;-4.162;2023-04-06T12:28:01;6.60;;;6.30;;
8568;SDS011;4322;51.104;-4.162;2023-04-06T12:30:29;6.43;;;6.13;;
8568;SDS011;4322;51.104;-4.162;2023-04-06T12:32:58;6.40;;;6.10;;
8568;SDS011;4322;51.104;-4.162;2023-04-06T12:35:26;7.00;;;6.70;;
8568;SDS011;4322;51.104;-4.162;2023-04-06T12:37:54;5.83;;;5.60;;
8568;SDS011;4322;51.104;-4.162;2023-04-06T12:40:23;6.03;;;5.73;;
8568;SDS011;4322;51.104;-4.162;2023-04-06T12:42:51;7.13;;;6.83;;
8568;SDS011;4322;51.104;-4.162;2023-04-06T12:45:19;7.10;;;6.80;;
8568;SDS011;4322;51.104;-4.162;2023-04-06T12:47:47;7.00;;;6.70;;
8568;SDS011;4322;51.104;-4.162;2023-04-06T12:50:15;6.63;;;6.33;;
8568;SDS011;4322;51.104;-4.162;2023-04-06T12:52:42;6.30;;;6.00;;
8568;SDS011;4322;51.104;-4.162;2023-04-06T12:55:10;6.40;;;6.10;;
8568;SDS011;4322;51.104;-4.162;2023-04-06T12:57:40;5.67;;;5.47;;
8568;SDS011;4322;51.104;-4.162;2023-04-06T13:00:08;5.80;;;5.57;;
8568;SDS011;4322;51.104;-4.162;2023-04-06T13:02:36;4.97;;;4.77;;
8568;SDS011;4322;51.104;-4.162;2023-04-06T13:05:04;4.70;;;4.50;;
8568;SDS011;4322;51.104;-4.162;2023-04-06T13:07:32;4.40;;;4.20;;
8568;SDS011;4322;51.104;-4.162;2023-04-06T13:10:00;4.30;;;4.10;;
8568;SDS011;4322;51.104;-4.162;2023-04-06T13:12:27;4.10;;;3.90;;
8568;SDS011;4322;51.104;-4.162;2023-04-06T13:14:57;3.50;;;3.40;;
8568;SDS011;4322;51.104;-4.162;2023-04-06T13:17:26;3.27;;;3.17;;
8568;SDS011;4322;51.104;-4.162;2023-04-06T13:19:54;3.53;;;3.43;;
8568;SDS011;4322;51.104;-4.162;2023-04-06T13:22:22;3.33;;;3.23;;
8568;SDS011;4322;51.104;-4.162;2023-04-06T13:24:50;3.00;;;2.90;;
8568;SDS011;4322;51.104;-4.162;2023-04-06T13:27:18;3.00;;;2.90;;
8568;SDS011;4322;51.104;-4.162;2023-04-06T13:29:45;2.47;;;2.37;;
8568;SDS011;4322;51.104;-4.162;2023-04-06T13:32:15;2.37;;;2.27;;
8568;SDS011;4322;51.104;-4.162;2023-04-06T13:34:43;2.00;;;2.00;;
8568;SDS011;4322;51.104;-4.162;2023-04-06T13:37:11;1.80;;;1.80;;
8568;SDS011;4322;51.104;-4.162;2023-04-06T13:39:39;1.77;;;1.77;;
8568;SDS011;4322;51.104;-4.162;2023-04-06T13:42:07;1.50;;;1.50;;
8568;SDS011;4322;51.104;-4.162;2023-04-06T13:44:36;1.30;;;1.30;;
8568;SDS011;4322;51.104;-4.162;2023-04-06T13:47:04;1.30;;;1.30;;
8568;SDS011;4322;51.104;-4.162;2023-04-06T13:49:33;1.20;;;1.20;;
8568;SDS011;4322;51.104;-4.162;2023-04-06T13:52:02;1.20;;;1.20;;
8568;SDS011;4322;51.104;-4.162;2023-04-06T13:54:30;1.40;;;1.40;;
8568;SDS011;4322;51.104;-4.162;2023-04-06T13:56:57;1.20;;;1.20;;
8568;SDS011;4322;51.104;-4.162;2023-04-06T13:59:31;1.30;;;1.30;;
8568;SDS011;4322;51.104;-4.162;2023-04-06T14:01:59;1.30;;;1.30;;
8568;SDS011;4322;51.104;-4.162;2023-04-06T14:04:27;1.23;;;1.23;;
8568;SDS011;4322;51.104;-4.162;2023-04-06T14:06:56;1.30;;;1.30;;
8568;SDS011;4322;51.104;-4.162;2023-04-06T14:09:24;1.30;;;1.30;;
8568;SDS011;4322;51.104;-4.162;2023-04-06T14:11:52;1.37;;;1.37;;
8568;SDS011;4322;51.104;-4.162;2023-04-06T14:14:20;1.23;;;1.23;;
8568;SDS011;4322;51.104;-4.162;2023-04-06T14:16:48;1.30;;;1.30;;
8568;SDS011;4322;51.104;-4.162;2023-04-06T14:19:16;1.40;;;1.40;;
8568;SDS011;4322;51.104;-4.162;2023-04-06T14:21:45;1.40;;;1.40;;
8568;SDS011;4322;51.104;-4.162;2023-04-06T14:24:14;1.40;;;1.40;;
8568;SDS011;4322;51.104;-4.162;2023-04-06T14:26:42;1.30;;;1.30;;
8568;SDS011;4322;51.104;-4.162;2023-04-06T14:29:10;1.50;;;1.50;;
8568;SDS011;4322;51.104;-4.162;2023-04-06T14:31:38;1.43;;;1.43;;
8568;SDS011;4322;51.104;-4.162;2023-04-06T14:34:06;1.70;;;1.70;;
8568;SDS011;4322;51.104;-4.162;2023-04-06T14:36:36;1.40;;;1.40;;
8568;SDS011;4322;51.104;-4.162;2023-04-06T14:39:04;1.57;;;1.57;;
8568;SDS011;4322;51.104;-4.162;2023-04-06T14:41:34;1.60;;;1.60;;
8568;SDS011;4322;51.104;-4.162;2023-04-06T14:44:02;1.70;;;1.70;;
8568;SDS011;4322;51.104;-4.162;2023-04-06T14:46:31;1.60;;;1.60;;
8568;SDS011;4322;51.104;-4.162;2023-04-06T14:49:00;1.60;;;1.60;;
8568;SDS011;4322;51.104;-4.162;2023-04-06T14:51:29;1.47;;;1.47;;
8568;SDS011;4322;51.104;-4.162;2023-04-06T14:53:57;1.50;;;1.50;;
8568;SDS011;4322;51.104;-4.162;2023-04-06T14:56:27;1.50;;;1.50;;
8568;SDS011;4322;51.104;-4.162;2023-04-06T14:58:58;1.50;;;1.50;;
8568;SDS011;4322;51.104;-4.162;2023-04-06T15:01:27;1.63;;;1.63;;